METAR Data
IDs: Format: Raw Decoded Include TAF

Data at: 2105 UTC 01 Dec 2021

KTBN 012056Z AUTO 27007KT 10SM CLR 19/03 A2994 RMK AO2 SLP139 T01870029